Time;durP1;ratioP1;P1;durP2;ratioP2;P2;SDS_P1;SDS_P2;PMS_P1;PMS_P2;Temp;Humidity;BMP_temperature;BMP_pressure;BME280_temperature;BME280_humidity;BME280_pressure;Samples;Min_cycle;Max_cycle;Signal;HPM_P1;HPM_P2
2022/05/07 00:00:23;;;;;;;3.50;2.25;;;13.80;99.90;;;;;;6093349;23;20085;-81
2022/05/07 00:02:49;;;;;;;5.47;2.55;;;13.80;99.90;;;;;;6093418;23;20077;-81
2022/05/07 00:05:15;;;;;;;5.55;2.25;;;13.80;99.90;;;;;;6093729;23;20006;-81
2022/05/07 00:07:41;;;;;;;6.00;2.17;;;13.80;99.90;;;;;;6067798;23;20006;-81
2022/05/07 00:10:07;;;;;;;4.72;2.20;;;13.80;99.90;;;;;;6067762;23;20058;-81
2022/05/07 00:12:33;;;;;;;2.63;2.00;;;13.70;99.90;;;;;;6067933;23;20037;-81
2022/05/07 00:14:59;;;;;;;4.53;2.58;;;13.80;99.90;;;;;;6093385;23;20052;-81
2022/05/07 00:20:09;;;;;;;4.15;2.50;;;13.70;99.90;;;;;;6093658;23;20010;-81
2022/05/07 00:22:35;;;;;;;4.65;2.30;;;13.70;99.90;;;;;;6093352;23;20007;-81
2022/05/07 00:25:02;;;;;;;3.30;2.50;;;13.70;99.90;;;;;;6093265;23;20009;-81
2022/05/07 00:27:28;;;;;;;4.63;2.38;;;13.70;99.90;;;;;;6067589;23;20060;-82
2022/05/07 00:29:54;;;;;;;5.50;2.35;;;13.70;99.90;;;;;;6067399;23;20002;-81
2022/05/07 00:32:19;;;;;;;4.10;2.50;;;13.70;99.90;;;;;;6093340;23;20074;-81
2022/05/07 00:34:45;;;;;;;5.07;2.78;;;13.70;99.90;;;;;;6093568;23;20003;-81
2022/05/07 00:37:11;;;;;;;4.57;2.45;;;13.70;99.90;;;;;;6093601;23;20060;-81
2022/05/07 00:39:36;;;;;;;2.30;2.08;;;13.60;99.90;;;;;;6067774;23;20010;-81
2022/05/07 00:42:04;;;;;;;3.05;2.25;;;13.70;99.90;;;;;;6067663;23;20359;-81
2022/05/07 00:44:29;;;;;;;5.18;2.38;;;13.60;99.90;;;;;;6067809;23;20003;-81
2022/05/07 00:47:16;;;;;;;3.42;2.35;;;13.60;99.90;;;;;;6093238;23;20006;-81
2022/05/07 00:49:43;;;;;;;2.47;2.13;;;13.60;99.90;;;;;;6067664;23;20049;-81
2022/05/07 00:52:09;;;;;;;4.97;2.08;;;13.60;99.90;;;;;;6067585;23;20006;-81
2022/05/07 00:54:35;;;;;;;5.90;2.38;;;13.60;99.90;;;;;;6093115;23;20009;-81
2022/05/07 00:57:01;;;;;;;6.03;2.60;;;13.60;99.90;;;;;;6093056;23;20022;-81
2022/05/07 00:59:27;;;;;;;3.53;2.10;;;13.60;99.90;;;;;;6067628;23;20052;-81
2022/05/07 01:01:53;;;;;;;5.20;2.33;;;13.60;99.90;;;;;;6067477;23;20397;-81
2022/05/07 01:04:19;;;;;;;4.40;2.63;;;13.60;99.90;;;;;;6093176;23;20002;-81
2022/05/07 01:06:45;;;;;;;4.38;2.40;;;13.60;99.90;;;;;;6093200;23;20053;-81
2022/05/07 01:09:11;;;;;;;4.45;2.10;;;13.60;99.90;;;;;;6093455;23;20331;-81
2022/05/07 01:11:37;;;;;;;3.22;2.28;;;13.50;99.90;;;;;;6093107;23;20002;-81
2022/05/07 01:14:03;;;;;;;3.60;2.10;;;13.50;99.90;;;;;;6067518;23;20049;-81
2022/05/07 01:16:29;;;;;;;4.78;2.35;;;13.50;99.90;;;;;;6093388;23;20006;-81
2022/05/07 01:18:54;;;;;;;9.35;2.65;;;13.50;99.90;;;;;;6067481;23;20013;-81
2022/05/07 01:21:20;;;;;;;5.40;2.45;;;13.50;99.90;;;;;;6067442;23;20068;-82
2022/05/07 01:23:49;;;;;;;2.45;1.92;;;13.50;99.90;;;;;;6093163;23;20379;-81
2022/05/07 01:26:17;;;;;;;4.65;2.00;;;13.50;99.90;;;;;;6093024;23;20030;-81
2022/05/07 01:28:44;;;;;;;3.42;2.13;;;13.50;99.90;;;;;;6067452;23;20037;-81
2022/05/07 01:31:10;;;;;;;4.38;1.98;;;13.50;99.90;;;;;;6067387;23;20010;-81
2022/05/07 01:33:36;;;;;;;5.50;2.20;;;13.40;99.90;;;;;;6092985;23;20382;-81
2022/05/07 01:36:03;;;;;;;3.58;2.17;;;13.50;99.90;;;;;;6067340;23;20382;-81
2022/05/07 01:38:30;;;;;;;7.90;2.47;;;13.40;99.90;;;;;;6067353;23;20010;-81
2022/05/07 01:40:56;;;;;;;5.60;2.38;;;13.40;99.90;;;;;;6092303;23;20006;-81
2022/05/07 01:43:22;;;;;;;3.50;2.13;;;13.40;99.90;;;;;;6092825;23;20426;-81
2022/05/07 01:45:48;;;;;;;4.05;2.28;;;13.40;99.90;;;;;;6067399;23;20009;-81
2022/05/07 01:48:14;;;;;;;3.95;2.05;;;13.40;99.90;;;;;;6092891;23;20066;-81
2022/05/07 01:50:42;;;;;;;10.27;2.40;;;13.40;99.90;;;;;;6092888;23;20446;-81
2022/05/07 01:53:08;;;;;;;6.55;2.10;;;13.40;99.90;;;;;;6067307;23;20007;-81
2022/05/07 01:55:34;;;;;;;3.72;2.00;;;13.40;99.90;;;;;;6092566;23;20014;-81
2022/05/07 01:58:00;;;;;;;5.50;2.15;;;13.30;99.90;;;;;;6092895;23;20302;-81
2022/05/07 02:00:26;;;;;;;6.20;2.15;;;13.30;99.90;;;;;;6067135;23;20461;-81
2022/05/07 02:02:52;;;;;;;4.20;2.28;;;13.40;99.90;;;;;;6067268;23;20007;-81
2022/05/07 02:05:17;;;;;;;2.58;2.03;;;13.30;99.90;;;;;;6067259;23;20006;-81
2022/05/07 02:07:44;;;;;;;3.20;2.03;;;13.30;99.90;;;;;;6092869;23;20002;-81
2022/05/07 02:10:10;;;;;;;6.32;2.33;;;13.30;99.90;;;;;;6092774;23;20026;-81
2022/05/07 02:12:36;;;;;;;3.00;2.03;;;13.30;99.90;;;;;;6067295;23;20002;-81
2022/05/07 02:15:02;;;;;;;3.47;2.30;;;13.30;99.90;;;;;;6092760;23;20022;-81
2022/05/07 02:17:27;;;;;;;3.45;2.55;;;13.30;99.90;;;;;;6067097;23;20315;-81
2022/05/07 02:19:53;;;;;;;5.03;2.15;;;13.30;99.90;;;;;;6092703;23;20005;-81
2022/05/07 02:22:18;;;;;;;4.28;2.30;;;13.30;99.90;;;;;;6067051;23;20092;-81
2022/05/07 02:24:44;;;;;;;6.45;2.60;;;13.30;99.90;;;;;;6092663;23;20013;-81
2022/05/07 02:27:10;;;;;;;4.32;2.40;;;13.20;99.90;;;;;;6067012;23;20003;-81
2022/05/07 02:29:35;;;;;;;6.30;2.30;;;13.20;99.90;;;;;;6092926;23;20418;-81
2022/05/07 02:32:05;;;;;;;3.35;2.10;;;13.20;99.90;;;;;;6092885;23;20003;-81
2022/05/07 02:34:35;;;;;;;3.40;2.30;;;13.20;99.90;;;;;;6093133;23;20002;-81
2022/05/07 02:37:01;;;;;;;3.88;2.22;;;13.20;99.90;;;;;;6066929;23;20587;-81
2022/05/07 02:39:27;;;;;;;4.28;2.40;;;13.20;99.90;;;;;;6066946;23;20034;-81
2022/05/07 02:44:37;;;;;;;3.83;2.15;;;13.20;99.90;;;;;;6092822;23;20010;-81
2022/05/07 02:47:04;;;;;;;3.53;2.40;;;13.20;99.90;;;;;;6066788;23;20334;-81
2022/05/07 02:49:31;;;;;;;5.22;2.22;;;13.20;99.90;;;;;;6066834;23;20451;-81
2022/05/07 02:51:57;;;;;;;3.03;2.08;;;13.10;99.90;;;;;;6066794;23;20010;-81
2022/05/07 02:54:22;;;;;;;2.97;2.28;;;13.10;99.90;;;;;;6069277;23;20010;-81
2022/05/07 02:56:48;;;;;;;3.47;2.20;;;13.10;99.90;;;;;;6093379;23;20014;-81
2022/05/07 02:59:14;;;;;;;4.57;2.22;;;13.10;99.90;;;;;;6093573;23;20081;-81
2022/05/07 03:01:41;;;;;;;5.13;2.50;;;13.10;99.90;;;;;;6068055;23;20006;-81
2022/05/07 03:04:08;;;;;;;6.32;2.28;;;13.10;99.90;;;;;;6068130;23;20009;-81
2022/05/07 03:06:34;;;;;;;3.28;1.95;;;13.10;99.90;;;;;;6093545;23;20006;-81
2022/05/07 03:09:00;;;;;;;4.85;2.13;;;13.10;99.90;;;;;;6093860;23;20041;-82
2022/05/07 03:11:26;;;;;;;6.25;2.30;;;13.10;99.90;;;;;;6068036;23;20009;-81
2022/05/07 03:13:51;;;;;;;2.90;2.08;;;13.10;99.90;;;;;;6067948;23;20011;-81
2022/05/07 03:16:17;;;;;;;6.75;2.22;;;13.10;99.90;;;;;;6068006;23;20105;-81
2022/05/07 03:18:43;;;;;;;4.68;2.40;;;13.10;99.90;;;;;;6093570;23;20013;-82
2022/05/07 03:21:08;;;;;;;5.32;2.40;;;13.00;99.90;;;;;;6067985;23;20006;-81
2022/05/07 03:23:34;;;;;;;4.38;2.17;;;13.00;99.90;;;;;;6067932;23;20009;-81
2022/05/07 03:26:00;;;;;;;3.00;2.28;;;13.00;99.90;;;;;;6093555;23;20006;-81
2022/05/07 03:28:25;;;;;;;3.08;2.15;;;13.00;99.90;;;;;;6093521;23;20026;-81
2022/05/07 03:30:51;;;;;;;2.80;2.10;;;13.00;99.90;;;;;;6093541;23;20009;-81
2022/05/07 03:33:16;;;;;;;4.43;2.20;;;13.00;99.90;;;;;;6093477;23;20002;-81
2022/05/07 03:35:43;;;;;;;2.83;2.00;;;13.00;99.90;;;;;;6093808;23;20010;-81
2022/05/07 03:38:10;;;;;;;2.60;2.10;;;13.00;99.90;;;;;;6067899;23;20006;-81
2022/05/07 03:40:35;;;;;;;2.97;1.88;;;13.00;99.90;;;;;;6093331;23;20072;-81
2022/05/07 03:43:03;;;;;;;4.10;1.92;;;13.00;99.90;;;;;;6093473;23;20002;-81
2022/05/07 03:45:30;;;;;;;2.25;1.77;;;13.00;99.90;;;;;;6067850;23;20009;-81
2022/05/07 03:47:56;;;;;;;3.30;2.05;;;13.00;99.90;;;;;;6067874;23;20388;-81
2022/05/07 03:50:21;;;;;;;3.63;2.10;;;12.90;99.90;;;;;;6067884;23;20044;-81
2022/05/07 03:55:31;;;;;;;5.13;2.13;;;12.90;99.90;;;;;;6093514;23;20021;-81
2022/05/07 03:57:57;;;;;;;4.78;1.77;;;12.90;99.90;;;;;;6093437;23;20326;-81
2022/05/07 04:00:23;;;;;;;3.42;2.03;;;12.90;99.90;;;;;;6093338;23;20073;-81
2022/05/07 04:02:48;;;;;;;3.70;2.30;;;12.90;99.90;;;;;;6093415;23;20002;-81
2022/05/07 04:05:14;;;;;;;3.58;2.25;;;12.90;99.90;;;;;;6092991;23;20003;-81
2022/05/07 04:07:40;;;;;;;5.75;2.00;;;12.90;99.90;;;;;;6067910;23;20006;-81
2022/05/07 04:10:07;;;;;;;3.55;2.00;;;12.90;99.90;;;;;;6093384;23;20007;-81
2022/05/07 04:12:32;;;;;;;4.28;2.20;;;12.90;99.90;;;;;;6067771;23;20034;-81
2022/05/07 04:15:00;;;;;;;2.78;1.98;;;12.90;99.90;;;;;;6067694;23;19999;-81
2022/05/07 04:17:26;;;;;;;3.15;2.05;;;12.80;99.90;;;;;;6067805;23;20086;-81
2022/05/07 04:19:51;;;;;;;3.83;2.00;;;12.80;99.90;;;;;;6093316;23;20429;-81
2022/05/07 04:22:17;;;;;;;3.35;2.00;;;12.80;99.90;;;;;;6093586;23;20088;-81
2022/05/07 04:24:44;;;;;;;6.20;2.20;;;12.80;99.90;;;;;;6093745;23;20002;-81
2022/05/07 04:27:09;;;;;;;2.28;1.80;;;12.80;99.90;;;;;;6093632;23;20025;-81
2022/05/07 04:29:35;;;;;;;3.35;2.00;;;12.80;99.90;;;;;;6093356;23;19999;-81
2022/05/07 04:32:01;;;;;;;4.60;2.03;;;12.80;99.90;;;;;;6067793;23;20006;-81
2022/05/07 04:34:29;;;;;;;2.75;2.20;;;12.80;99.90;;;;;;6067584;23;20053;-81
2022/05/07 04:36:58;;;;;;;4.65;2.15;;;12.80;99.90;;;;;;6067642;23;20502;-81
2022/05/07 04:39:23;;;;;;;3.97;1.95;;;12.80;99.90;;;;;;6067706;23;20014;-81
2022/05/07 04:41:49;;;;;;;3.28;2.10;;;12.80;99.90;;;;;;6067649;23;20013;-81
2022/05/07 04:44:15;;;;;;;4.10;2.17;;;12.80;99.90;;;;;;6093877;23;20057;-81
2022/05/07 04:46:40;;;;;;;4.15;2.47;;;12.80;99.90;;;;;;6067652;23;20502;-81
2022/05/07 04:49:06;;;;;;;4.78;3.20;;;12.80;99.90;;;;;;6067480;23;20426;-81
2022/05/07 04:51:32;;;;;;;4.45;3.30;;;12.80;99.90;;;;;;6093151;23;20007;-81
2022/05/07 04:53:58;;;;;;;3.85;2.80;;;12.80;99.90;;;;;;6067572;23;20006;-81
2022/05/07 04:56:24;;;;;;;3.45;2.60;;;12.80;99.90;;;;;;6092889;23;20010;-81
2022/05/07 04:58:51;;;;;;;3.88;2.17;;;12.80;99.90;;;;;;6067647;23;20007;-81
2022/05/07 05:01:17;;;;;;;4.18;2.30;;;12.80;99.90;;;;;;6067471;23;20018;-81
2022/05/07 05:03:43;;;;;;;3.10;2.28;;;12.80;99.90;;;;;;6067526;23;20422;-81
2022/05/07 05:06:09;;;;;;;5.45;2.65;;;12.80;99.90;;;;;;6067299;23;20003;-81
2022/05/07 05:08:34;;;;;;;3.72;2.45;;;12.80;99.90;;;;;;6067374;23;20013;-81
2022/05/07 05:11:00;;;;;;;3.63;2.35;;;12.80;99.90;;;;;;6067409;23;20033;-81
2022/05/07 05:13:26;;;;;;;6.15;2.25;;;12.80;99.90;;;;;;6093539;23;20431;-81
2022/05/07 05:15:51;;;;;;;5.78;2.42;;;12.80;99.90;;;;;;6093182;23;20003;-82
2022/05/07 05:18:17;;;;;;;3.17;2.20;;;12.80;99.90;;;;;;6067528;23;20010;-81
2022/05/07 05:20:43;;;;;;;3.25;2.28;;;12.80;99.90;;;;;;6092853;23;20037;-81
2022/05/07 05:23:09;;;;;;;3.88;2.42;;;12.80;99.90;;;;;;6092933;23;20044;-82
2022/05/07 05:25:35;;;;;;;4.07;2.58;;;12.80;99.90;;;;;;6067293;23;20002;-82
2022/05/07 05:28:01;;;;;;;4.00;2.45;;;12.80;99.90;;;;;;6067491;23;20041;-82
2022/05/07 05:30:27;;;;;;;6.57;2.30;;;12.80;99.90;;;;;;6067368;23;20007;-82
2022/05/07 05:32:52;;;;;;;3.75;2.47;;;12.80;99.90;;;;;;6067631;23;20060;-81
2022/05/07 05:35:18;;;;;;;2.75;2.33;;;12.90;99.90;;;;;;6067154;23;20010;-82
2022/05/07 05:37:43;;;;;;;4.07;2.15;;;12.80;99.90;;;;;;6092835;23;20418;-82
2022/05/07 05:40:09;;;;;;;4.82;2.33;;;12.90;99.90;;;;;;6092717;23;19998;-82
2022/05/07 05:42:35;;;;;;;4.97;2.38;;;12.90;99.90;;;;;;6092737;23;20006;-82
2022/05/07 05:45:03;;;;;;;3.17;2.13;;;12.90;99.90;;;;;;6067345;23;20049;-82
2022/05/07 05:47:28;;;;;;;3.25;2.40;;;12.90;99.90;;;;;;6067198;23;20007;-82
2022/05/07 05:49:54;;;;;;;4.35;2.35;;;12.90;99.90;;;;;;6092725;23;20025;-81
2022/05/07 05:52:20;;;;;;;4.22;2.53;;;12.90;99.90;;;;;;6067145;23;20007;-81
2022/05/07 05:54:45;;;;;;;2.47;1.80;;;12.90;99.90;;;;;;6092430;23;20336;-82
2022/05/07 05:57:11;;;;;;;5.00;2.33;;;12.90;99.90;;;;;;6067115;23;20014;-82
2022/05/07 05:59:37;;;;;;;4.13;2.30;;;12.90;99.90;;;;;;6067135;23;20007;-81
2022/05/07 06:02:03;;;;;;;2.95;1.95;;;12.90;99.90;;;;;;6092680;23;20324;-82
2022/05/07 06:04:28;;;;;;;3.90;2.50;;;12.90;99.90;;;;;;6093261;23;20414;-82
2022/05/07 06:06:54;;;;;;;3.67;2.45;;;13.00;99.90;;;;;;6067061;23;20003;-82
2022/05/07 06:09:21;;;;;;;5.53;2.40;;;12.90;99.90;;;;;;6092608;23;20068;-82
2022/05/07 06:11:47;;;;;;;4.80;2.35;;;13.00;99.90;;;;;;6067049;23;20007;-82
2022/05/07 06:14:13;;;;;;;3.03;2.17;;;13.00;99.90;;;;;;6092551;23;20013;-82
2022/05/07 06:16:39;;;;;;;3.97;2.20;;;13.00;99.90;;;;;;6092887;23;20414;-81
2022/05/07 06:19:05;;;;;;;6.68;2.25;;;13.00;99.90;;;;;;6092601;23;20008;-82
2022/05/07 06:21:31;;;;;;;6.97;2.17;;;13.00;99.90;;;;;;6092354;23;20007;-82
2022/05/07 06:27:28;;;;;;;4.55;2.40;;;13.00;99.90;;;;;;6066734;23;20452;-80
2022/05/07 06:29:46;;;;;;;6.03;2.25;;;13.00;99.90;;;;;;5978222;24;20313;-80
2022/05/07 06:32:12;;;;;;;4.60;2.60;;;13.00;99.90;;;;;;5977584;24;20015;-80
2022/05/07 06:34:37;;;;;;;3.80;2.20;;;13.00;99.90;;;;;;6007097;23;20011;-80
2022/05/07 06:37:03;;;;;;;2.30;2.10;;;13.10;99.90;;;;;;6068188;23;20348;-80
2022/05/07 06:39:29;;;;;;;2.97;2.00;;;13.10;99.90;;;;;;6067944;23;20438;-80
2022/05/07 06:41:54;;;;;;;4.10;2.30;;;13.10;99.90;;;;;;6093364;23;20336;-81
2022/05/07 06:44:20;;;;;;;3.95;2.22;;;13.10;99.90;;;;;;6068108;23;20005;-80
2022/05/07 06:46:46;;;;;;;5.03;2.40;;;13.10;99.90;;;;;;6093515;23;20006;-81
2022/05/07 06:49:12;;;;;;;5.38;2.30;;;13.10;99.90;;;;;;6067952;23;20006;-80
2022/05/07 06:51:38;;;;;;;4.97;2.33;;;13.20;99.90;;;;;;6093501;23;20003;-81
2022/05/07 06:54:03;;;;;;;5.22;2.20;;;13.20;99.90;;;;;;6067882;23;20006;-81
2022/05/07 06:56:29;;;;;;;2.92;2.25;;;13.20;99.90;;;;;;6093439;23;20022;-81
2022/05/07 06:58:55;;;;;;;6.32;2.13;;;13.20;99.90;;;;;;6093134;23;20082;-81
2022/05/07 07:01:20;;;;;;;3.85;2.30;;;13.30;99.90;;;;;;6093280;23;20303;-80
2022/05/07 07:03:46;;;;;;;4.00;2.03;;;13.30;99.90;;;;;;6067908;23;20022;-81
2022/05/07 07:06:13;;;;;;;4.80;2.00;;;13.30;99.90;;;;;;6067856;23;20003;-81
2022/05/07 07:08:38;;;;;;;3.22;2.15;;;13.30;99.90;;;;;;6067517;23;20002;-81
2022/05/07 07:11:04;;;;;;;3.03;2.25;;;13.30;99.90;;;;;;6067876;23;20013;-81
2022/05/07 07:13:30;;;;;;;3.80;2.60;;;13.30;99.90;;;;;;6093334;23;20022;-80
2022/05/07 07:15:55;;;;;;;4.65;2.30;;;13.40;99.90;;;;;;6067909;23;20045;-80
2022/05/07 07:18:21;;;;;;;2.80;2.28;;;13.40;99.90;;;;;;6093438;23;20010;-81
2022/05/07 07:20:49;;;;;;;3.10;2.08;;;13.40;99.90;;;;;;6093356;23;20002;-81
2022/05/07 07:23:15;;;;;;;4.85;2.33;;;13.40;99.90;;;;;;6067793;23;20003;-81
2022/05/07 07:25:42;;;;;;;3.90;2.25;;;13.50;99.90;;;;;;6067731;23;20006;-81
2022/05/07 07:28:09;;;;;;;3.47;2.13;;;13.50;99.90;;;;;;6093646;23;20101;-81
2022/05/07 07:30:34;;;;;;;3.45;2.20;;;13.50;99.90;;;;;;6067811;23;20013;-81
2022/05/07 07:33:01;;;;;;;2.83;2.00;;;13.50;99.90;;;;;;6067908;23;20006;-81
2022/05/07 07:35:27;;;;;;;4.15;2.47;;;13.60;99.90;;;;;;6067889;23;20346;-80
2022/05/07 07:37:53;;;;;;;6.60;2.30;;;13.60;99.90;;;;;;6067799;23;20033;-82
2022/05/07 07:40:19;;;;;;;5.35;2.50;;;13.60;99.90;;;;;;6093847;23;20373;-81
2022/05/07 07:42:45;;;;;;;3.97;2.42;;;13.60;99.90;;;;;;6093954;23;20024;-80
2022/05/07 07:47:57;;;;;;;4.40;2.25;;;13.70;99.90;;;;;;6093458;23;20033;-81
2022/05/07 07:50:34;;;;;;;3.28;2.40;;;13.70;99.90;;;;;;6067696;23;20108;-81
2022/05/07 07:53:08;;;;;;;3.20;2.22;;;13.70;99.90;;;;;;6093373;23;20062;-81
2022/05/07 07:55:34;;;;;;;5.03;2.60;;;13.80;99.90;;;;;;6067411;23;20026;-81
2022/05/07 07:58:02;;;;;;;5.63;2.70;;;13.80;99.90;;;;;;6093306;23;20056;-81
2022/05/07 08:00:29;;;;;;;6.18;2.80;;;13.80;99.90;;;;;;6067640;23;20085;-81
2022/05/07 08:02:58;;;;;;;6.82;2.83;;;13.80;99.90;;;;;;6093289;23;20073;-81
2022/05/07 08:05:28;;;;;;;4.13;2.72;;;13.90;99.90;;;;;;6093292;23;20002;-81
2022/05/07 08:13:23;;;;;;;5.85;2.92;;;14.00;99.90;;;;;;6093401;23;20458;-81
2022/05/07 08:15:49;;;;;;;3.00;2.58;;;14.00;99.90;;;;;;6067563;23;20003;-81
2022/05/07 08:18:16;;;;;;;6.32;3.15;;;14.00;99.90;;;;;;6093487;23;20029;-81
2022/05/07 08:20:42;;;;;;;4.25;3.00;;;14.10;99.90;;;;;;6093018;23;20089;-81
2022/05/07 08:23:09;;;;;;;8.02;3.40;;;14.10;99.90;;;;;;6093156;23;20002;-81
2022/05/07 08:25:35;;;;;;;5.15;3.10;;;14.10;99.90;;;;;;6093307;23;20053;-81
2022/05/07 08:28:01;;;;;;;5.68;3.45;;;14.10;99.90;;;;;;6093199;23;20003;-82
2022/05/07 08:30:27;;;;;;;3.80;3.10;;;14.20;99.90;;;;;;6093169;23;20449;-81
2022/05/07 08:32:52;;;;;;;6.78;3.63;;;14.20;99.90;;;;;;6068091;23;20005;-81
2022/05/07 08:35:18;;;;;;;8.85;3.78;;;14.20;99.90;;;;;;6067615;23;20007;-81
2022/05/07 08:37:45;;;;;;;7.90;3.50;;;14.30;99.90;;;;;;6093176;23;20048;-81
2022/05/07 08:40:14;;;;;;;4.85;2.80;;;14.30;99.90;;;;;;6093584;23;20011;-81
2022/05/07 08:42:40;;;;;;;6.20;3.33;;;14.30;99.90;;;;;;6067437;23;20011;-81
2022/05/07 08:45:06;;;;;;;5.28;3.40;;;14.30;99.90;;;;;;6067508;23;20442;-81
2022/05/07 08:47:32;;;;;;;4.30;3.20;;;14.30;99.90;;;;;;6093112;23;20070;-82
2022/05/07 08:49:58;;;;;;;3.30;3.00;;;14.30;99.90;;;;;;6093003;23;20053;-81
2022/05/07 08:52:26;;;;;;;4.30;3.40;;;14.20;99.90;;;;;;6067370;23;20089;-81
2022/05/07 08:54:52;;;;;;;5.53;3.60;;;14.20;99.90;;;;;;6067159;23;20064;-81
2022/05/07 08:57:18;;;;;;;5.10;3.28;;;14.10;99.90;;;;;;6093182;23;20430;-81
2022/05/07 08:59:44;;;;;;;3.92;3.10;;;14.20;99.90;;;;;;6093474;23;20411;-81
2022/05/07 09:02:10;;;;;;;4.38;3.30;;;14.10;99.90;;;;;;6067396;23;20014;-81
2022/05/07 09:04:38;;;;;;;6.47;3.72;;;14.10;99.90;;;;;;6093071;23;20034;-81
2022/05/07 09:07:14;;;;;;;5.55;3.45;;;14.10;99.90;;;;;;6067282;23;20011;-81
2022/05/07 09:09:50;;;;;;;6.95;3.78;;;14.10;99.90;;;;;;6067426;23;20014;-81
2022/05/07 09:12:28;;;;;;;6.40;3.28;;;14.00;99.90;;;;;;6093018;23;20092;-81
2022/05/07 09:15:00;;;;;;;4.63;3.40;;;14.00;99.90;;;;;;6067232;23;20038;-81
2022/05/07 09:17:25;;;;;;;4.63;3.60;;;14.00;99.90;;;;;;6093187;23;20011;-81
2022/05/07 09:19:51;;;;;;;4.55;3.10;;;14.00;99.90;;;;;;6093260;23;20095;-81
2022/05/07 09:22:17;;;;;;;4.07;3.33;;;14.00;99.90;;;;;;6067195;23;20006;-81
2022/05/07 09:24:55;;;;;;;4.68;3.40;;;14.00;99.90;;;;;;6067335;23;20017;-81
2022/05/07 09:27:24;;;;;;;6.93;3.50;;;14.00;99.90;;;;;;6093279;23;20006;-81
2022/05/07 09:30:02;;;;;;;4.95;3.42;;;14.00;99.90;;;;;;6092822;23;20026;-81
2022/05/07 09:32:37;;;;;;;6.80;3.65;;;14.00;99.90;;;;;;6067289;23;20442;-81
2022/05/07 09:37:59;;;;;;;6.47;3.30;;;14.00;99.90;;;;;;6093287;23;20056;-81
2022/05/07 09:40:25;;;;;;;5.68;3.38;;;14.00;99.90;;;;;;6092727;23;20007;-82
2022/05/07 09:42:52;;;;;;;5.47;3.53;;;14.00;99.90;;;;;;6067269;23;20037;-81
2022/05/07 09:45:19;;;;;;;5.95;3.13;;;14.00;99.90;;;;;;6092844;23;19994;-81
2022/05/07 09:47:45;;;;;;;3.65;3.15;;;14.00;99.90;;;;;;6092998;23;20427;-81
2022/05/07 09:50:20;;;;;;;4.07;3.00;;;14.00;99.90;;;;;;6092815;23;20003;-81
2022/05/07 09:58:16;;;;;;;4.32;3.05;;;14.10;99.90;;;;;;6093063;23;20009;-81
2022/05/07 10:00:49;;;;;;;5.32;3.33;;;14.10;99.90;;;;;;6066957;23;20010;-81
2022/05/07 10:03:37;;;;;;;3.30;3.00;;;14.10;99.90;;;;;;6092240;23;20330;-81
2022/05/07 10:06:40;;;;;;;4.85;2.70;;;14.10;99.90;;;;;;6067820;23;20006;-81
2022/05/07 10:09:43;;;;;;;3.35;2.80;;;14.20;99.90;;;;;;6066975;23;20003;-81
2022/05/07 10:12:16;;;;;;;4.63;2.75;;;14.20;99.90;;;;;;6093163;23;20002;-81
2022/05/07 10:14:42;;;;;;;6.22;2.63;;;14.30;99.90;;;;;;6092720;23;20007;-81
2022/05/07 10:17:11;;;;;;;4.38;2.80;;;14.40;99.90;;;;;;6092732;23;20373;-81
2022/05/07 10:19:42;;;;;;;5.95;2.92;;;14.50;99.90;;;;;;6066774;23;20426;-81
2022/05/07 10:22:18;;;;;;;4.43;2.60;;;14.50;99.90;;;;;;6092915;23;20006;-81
2022/05/07 10:24:45;;;;;;;5.20;2.90;;;14.70;99.90;;;;;;6066925;23;20009;-81
2022/05/07 10:27:22;;;;;;;6.15;2.50;;;14.70;99.90;;;;;;6092406;23;19999;-81
2022/05/07 10:29:48;;;;;;;3.03;2.60;;;14.80;99.90;;;;;;6066856;23;20007;-81
2022/05/07 10:32:18;;;;;;;4.00;2.53;;;14.90;99.90;;;;;;6092397;23;20334;-81
2022/05/07 10:34:54;;;;;;;2.75;2.35;;;14.90;99.90;;;;;;6092972;23;20080;-81
2022/05/07 10:37:20;;;;;;;5.88;2.60;;;15.10;99.90;;;;;;6066761;23;20007;-81
2022/05/07 10:39:53;;;;;;;4.00;2.60;;;15.10;99.90;;;;;;6092290;23;20082;-81
2022/05/07 10:42:21;;;;;;;5.32;2.45;;;15.20;99.90;;;;;;6066789;23;20081;-80
2022/05/07 10:44:48;;;;;;;3.60;2.22;;;15.20;99.90;;;;;;6092679;23;20064;-81
2022/05/07 10:47:17;;;;;;;5.38;2.58;;;15.30;99.90;;;;;;6092563;23;20334;-81
2022/05/07 10:49:53;;;;;;;6.75;2.65;;;15.40;99.90;;;;;;6092380;23;20010;-80
2022/05/07 10:52:35;;;;;;;3.58;2.25;;;15.40;99.90;;;;;;6066814;23;20015;-80
2022/05/07 10:55:12;;;;;;;6.70;2.58;;;15.50;99.90;;;;;;6066742;23;20460;-81
2022/05/07 10:57:48;;;;;;;4.45;2.50;;;15.50;99.90;;;;;;6092633;23;20069;-81
2022/05/07 11:00:17;;;;;;;3.97;2.30;;;15.40;99.90;;;;;;6066514;23;20100;-81
2022/05/07 11:02:43;;;;;;;4.03;2.30;;;15.40;99.90;;;;;;6066459;23;20036;-81
2022/05/07 11:05:09;;;;;;;3.10;2.17;;;15.40;99.90;;;;;;6092581;23;20074;-81
2022/05/07 11:07:35;;;;;;;5.18;2.50;;;15.30;99.90;;;;;;6092864;23;20003;-81
2022/05/07 11:10:02;;;;;;;3.85;2.60;;;15.30;99.90;;;;;;6092132;23;19999;-81
2022/05/07 11:12:28;;;;;;;3.63;2.40;;;15.30;99.90;;;;;;6092087;23;20002;-81
2022/05/07 11:14:54;;;;;;;4.13;2.30;;;15.30;99.90;;;;;;6067470;23;20017;-81
2022/05/07 11:17:40;;;;;;;4.70;2.53;;;15.30;99.90;;;;;;6093747;23;20007;-81
2022/05/07 11:20:06;;;;;;;4.47;2.45;;;15.40;99.90;;;;;;6067961;23;20036;-81
2022/05/07 11:22:32;;;;;;;3.05;2.42;;;15.40;99.90;;;;;;6093510;23;20125;-81
2022/05/07 11:25:00;;;;;;;3.25;2.05;;;15.40;99.90;;;;;;6093500;23;20042;-81
2022/05/07 11:27:32;;;;;;;2.95;2.08;;;15.40;99.90;;;;;;6093573;23;19998;-81
2022/05/07 11:29:59;;;;;;;6.20;2.30;;;15.40;99.90;;;;;;6093390;23;20349;-80
2022/05/07 11:32:39;;;;;;;3.63;2.30;;;15.40;99.90;;;;;;6093362;23;20010;-81
2022/05/07 11:35:05;;;;;;;7.53;2.33;;;15.40;99.90;;;;;;6067909;23;20385;-81
2022/05/07 11:37:41;;;;;;;3.75;2.22;;;15.50;99.90;;;;;;6067858;23;20020;-81
2022/05/07 11:40:08;;;;;;;4.63;2.63;;;15.50;99.90;;;;;;6067843;23;20044;-81
2022/05/07 11:42:39;;;;;;;7.35;2.30;;;15.60;99.90;;;;;;6093220;23;20397;-80
2022/05/07 11:45:33;;;;;;;5.25;1.90;;;15.50;99.90;;;;;;6093294;23;20094;-81
2022/05/07 11:48:07;;;;;;;5.32;2.03;;;15.60;99.90;;;;;;6067933;23;20431;-81
2022/05/07 11:50:41;;;;;;;4.47;2.20;;;15.60;99.90;;;;;;6093687;23;20022;-81
2022/05/07 11:53:10;;;;;;;3.30;1.98;;;15.60;99.90;;;;;;6089764;23;20006;-81
2022/05/07 11:55:36;;;;;;;3.35;2.08;;;15.70;99.90;;;;;;6067553;23;20083;-81
2022/05/07 11:58:12;;;;;;;3.72;2.15;;;15.70;99.90;;;;;;6093247;23;20030;-81
2022/05/07 12:00:42;;;;;;;3.92;2.17;;;15.70;99.90;;;;;;6067622;23;20032;-81
2022/05/07 12:03:08;;;;;;;4.93;1.92;;;15.80;99.90;;;;;;6093237;23;20002;-81
2022/05/07 12:05:43;;;;;;;2.88;2.03;;;15.80;99.90;;;;;;6093896;23;20440;-81
2022/05/07 12:08:31;;;;;;;6.28;1.95;;;15.80;99.90;;;;;;6093331;23;20003;-81
2022/05/07 12:10:57;;;;;;;2.35;1.77;;;15.90;99.90;;;;;;6067701;23;20014;-81
2022/05/07 12:13:24;;;;;;;5.03;2.03;;;15.90;99.90;;;;;;6067991;23;20018;-81
2022/05/07 12:18:36;;;;;;;3.00;2.22;;;16.00;99.90;;;;;;6093642;23;20056;-81
2022/05/07 12:21:02;;;;;;;6.88;2.20;;;16.10;99.90;;;;;;6067456;23;20015;-81
2022/05/07 12:29:49;;;;;;;4.60;2.10;;;15.90;99.90;;;;;;6092973;23;20009;-81
2022/05/07 12:31:52;;;;;;;;;;;15.80;99.90;;;;;;6094185;23;20387;-81
2022/05/07 12:34:18;;;;;;;3.17;2.05;;;15.80;99.90;;;;;;6093299;23;19908;-81
2022/05/07 12:36:44;;;;;;;4.10;2.03;;;15.90;99.90;;;;;;6067501;23;20093;-81
2022/05/07 12:39:10;;;;;;;7.65;2.25;;;15.80;99.90;;;;;;6093254;23;20026;-81
2022/05/07 12:41:40;;;;;;;5.15;1.75;;;15.90;99.90;;;;;;6067521;23;20002;-81
2022/05/07 12:44:06;;;;;;;3.65;2.35;;;15.90;99.90;;;;;;6093180;23;20003;-81
2022/05/07 12:46:31;;;;;;;3.30;2.00;;;16.00;99.90;;;;;;6093273;23;20303;-81
2022/05/07 12:48:57;;;;;;;2.88;1.98;;;15.90;99.90;;;;;;6067712;23;20007;-81
2022/05/07 12:51:25;;;;;;;3.00;1.70;;;15.80;99.90;;;;;;6093223;23;20011;-81
2022/05/07 12:53:54;;;;;;;2.80;1.88;;;15.80;99.90;;;;;;6093182;23;20450;-81
2022/05/07 12:56:20;;;;;;;2.72;1.75;;;15.70;99.90;;;;;;6093004;23;20077;-81
2022/05/07 12:58:47;;;;;;;3.50;1.83;;;15.70;99.90;;;;;;6093210;23;20009;-81
2022/05/07 13:01:13;;;;;;;5.75;1.83;;;15.70;99.90;;;;;;6067437;23;20137;-81
2022/05/07 13:03:39;;;;;;;3.92;1.90;;;15.70;99.90;;;;;;6093186;23;20033;-82
2022/05/07 13:06:04;;;;;;;3.40;1.88;;;15.80;99.90;;;;;;6093425;23;20005;-81
2022/05/07 13:08:30;;;;;;;4.25;1.90;;;16.00;99.90;;;;;;6067597;23;20007;-81
2022/05/07 13:10:57;;;;;;;3.20;1.48;;;16.20;99.90;;;;;;6067534;23;20013;-81
2022/05/07 13:13:24;;;;;;;2.80;1.73;;;16.40;99.90;;;;;;6067486;23;20002;-81
2022/05/07 13:15:51;;;;;;;2.58;1.65;;;16.50;99.90;;;;;;6093502;23;20383;-82
2022/05/07 13:18:17;;;;;;;4.75;1.65;;;16.60;99.90;;;;;;6067469;23;20010;-81
2022/05/07 13:20:43;;;;;;;3.60;1.70;;;16.50;99.90;;;;;;6092892;23;20017;-82
2022/05/07 13:23:12;;;;;;;2.70;1.70;;;16.50;99.90;;;;;;6067505;23;20006;-81
2022/05/07 13:25:38;;;;;;;1.70;1.50;;;16.50;99.90;;;;;;6092955;23;20044;-84